sensor_id;sensor_type;location;lat;lon;timestamp;temperature;humidity
27759;DHT22;15148;48.972;12.794;2022-08-19T00:00:29;19.60;99.90
27759;DHT22;15148;48.972;12.794;2022-08-19T00:05:31;19.60;99.90
27759;DHT22;15148;48.972;12.794;2022-08-19T00:10:33;19.50;99.90
27759;DHT22;15148;48.972;12.794;2022-08-19T00:15:35;19.20;99.90
27759;DHT22;15148;48.972;12.794;2022-08-19T00:20:37;19.10;99.90
27759;DHT22;15148;48.972;12.794;2022-08-19T00:25:41;19.30;99.90
27759;DHT22;15148;48.972;12.794;2022-08-19T00:30:49;19.30;99.90
27759;DHT22;15148;48.972;12.794;2022-08-19T00:35:55;19.30;99.90
27759;DHT22;15148;48.972;12.794;2022-08-19T00:40:57;19.20;99.90
27759;DHT22;15148;48.972;12.794;2022-08-19T00:45:59;19.30;99.90
27759;DHT22;15148;48.972;12.794;2022-08-19T00:51:01;19.30;99.90
27759;DHT22;15148;48.972;12.794;2022-08-19T00:56:04;19.40;99.90
27759;DHT22;15148;48.972;12.794;2022-08-19T01:01:07;19.40;99.90
27759;DHT22;15148;48.972;12.794;2022-08-19T01:06:12;19.60;99.90
27759;DHT22;15148;48.972;12.794;2022-08-19T01:11:20;19.60;99.90
27759;DHT22;15148;48.972;12.794;2022-08-19T01:16:25;19.80;99.90
27759;DHT22;15148;48.972;12.794;2022-08-19T01:21:38;19.80;99.90
27759;DHT22;15148;48.972;12.794;2022-08-19T01:26:42;19.90;99.90
27759;DHT22;15148;48.972;12.794;2022-08-19T01:31:47;20.00;99.90
27759;DHT22;15148;48.972;12.794;2022-08-19T01:36:50;20.00;99.90
27759;DHT22;15148;48.972;12.794;2022-08-19T01:41:52;19.90;99.90
27759;DHT22;15148;48.972;12.794;2022-08-19T01:46:56;19.90;99.90
27759;DHT22;15148;48.972;12.794;2022-08-19T01:52:00;20.00;99.90
27759;DHT22;15148;48.972;12.794;2022-08-19T01:57:07;20.10;99.90
27759;DHT22;15148;48.972;12.794;2022-08-19T02:02:10;20.20;99.90
27759;DHT22;15148;48.972;12.794;2022-08-19T02:07:12;20.20;99.90
27759;DHT22;15148;48.972;12.794;2022-08-19T02:12:14;20.30;99.90
27759;DHT22;15148;48.972;12.794;2022-08-19T02:17:17;20.30;99.90
27759;DHT22;15148;48.972;12.794;2022-08-19T02:22:19;20.30;99.90
27759;DHT22;15148;48.972;12.794;2022-08-19T02:27:22;20.30;99.90
27759;DHT22;15148;48.972;12.794;2022-08-19T02:32:24;20.20;99.90
27759;DHT22;15148;48.972;12.794;2022-08-19T02:37:26;20.20;99.90
27759;DHT22;15148;48.972;12.794;2022-08-19T02:42:46;20.20;99.90
27759;DHT22;15148;48.972;12.794;2022-08-19T02:47:48;20.20;99.90
27759;DHT22;15148;48.972;12.794;2022-08-19T02:52:50;20.30;99.90
27759;DHT22;15148;48.972;12.794;2022-08-19T02:57:53;20.20;99.90
27759;DHT22;15148;48.972;12.794;2022-08-19T03:02:55;20.10;99.90
27759;DHT22;15148;48.972;12.794;2022-08-19T03:07:57;20.20;99.90
27759;DHT22;15148;48.972;12.794;2022-08-19T03:12:59;20.20;99.90
27759;DHT22;15148;48.972;12.794;2022-08-19T03:18:05;20.20;99.90
27759;DHT22;15148;48.972;12.794;2022-08-19T03:23:10;20.30;99.90
27759;DHT22;15148;48.972;12.794;2022-08-19T03:28:13;20.30;99.90
27759;DHT22;15148;48.972;12.794;2022-08-19T03:33:16;20.20;99.90
27759;DHT22;15148;48.972;12.794;2022-08-19T03:38:18;20.30;99.90
27759;DHT22;15148;48.972;12.794;2022-08-19T03:43:20;20.30;99.90
27759;DHT22;15148;48.972;12.794;2022-08-19T03:48:22;20.30;99.90
27759;DHT22;15148;48.972;12.794;2022-08-19T03:53:26;20.30;99.90
27759;DHT22;15148;48.972;12.794;2022-08-19T03:58:29;20.30;99.90
27759;DHT22;15148;48.972;12.794;2022-08-19T04:03:31;20.30;99.90
27759;DHT22;15148;48.972;12.794;2022-08-19T04:08:33;20.30;99.90
27759;DHT22;15148;48.972;12.794;2022-08-19T04:13:35;20.20;99.90
27759;DHT22;15148;48.972;12.794;2022-08-19T04:18:38;20.30;99.90
27759;DHT22;15148;48.972;12.794;2022-08-19T04:23:40;20.30;99.90
27759;DHT22;15148;48.972;12.794;2022-08-19T04:28:46;20.20;99.90
27759;DHT22;15148;48.972;12.794;2022-08-19T04:33:48;20.20;99.90
27759;DHT22;15148;48.972;12.794;2022-08-19T04:38:54;20.30;99.90
27759;DHT22;15148;48.972;12.794;2022-08-19T04:43:56;20.20;99.90
27759;DHT22;15148;48.972;12.794;2022-08-19T04:49:04;20.20;99.90
27759;DHT22;15148;48.972;12.794;2022-08-19T04:54:15;20.10;99.90
27759;DHT22;15148;48.972;12.794;2022-08-19T04:59:38;20.10;99.90
27759;DHT22;15148;48.972;12.794;2022-08-19T05:04:40;20.10;99.90
27759;DHT22;15148;48.972;12.794;2022-08-19T05:09:42;20.10;99.90
27759;DHT22;15148;48.972;12.794;2022-08-19T05:14:59;20.10;99.90
27759;DHT22;15148;48.972;12.794;2022-08-19T05:20:03;20.20;99.90
27759;DHT22;15148;48.972;12.794;2022-08-19T05:25:24;20.20;99.90
27759;DHT22;15148;48.972;12.794;2022-08-19T05:30:27;20.30;99.90
27759;DHT22;15148;48.972;12.794;2022-08-19T05:35:48;20.30;99.90
27759;DHT22;15148;48.972;12.794;2022-08-19T05:40:50;20.30;99.90
27759;DHT22;15148;48.972;12.794;2022-08-19T05:45:52;20.30;99.90
27759;DHT22;15148;48.972;12.794;2022-08-19T05:50:54;20.30;99.90
27759;DHT22;15148;48.972;12.794;2022-08-19T05:55:56;20.30;99.90
27759;DHT22;15148;48.972;12.794;2022-08-19T06:00:59;20.30;99.90
27759;DHT22;15148;48.972;12.794;2022-08-19T06:06:08;20.40;99.90
27759;DHT22;15148;48.972;12.794;2022-08-19T06:16:22;20.40;99.90
27759;DHT22;15148;48.972;12.794;2022-08-19T06:21:26;20.30;99.90
27759;DHT22;15148;48.972;12.794;2022-08-19T06:26:29;20.30;99.90
27759;DHT22;15148;48.972;12.794;2022-08-19T06:31:31;20.20;99.90
27759;DHT22;15148;48.972;12.794;2022-08-19T06:36:38;20.30;99.90
27759;DHT22;15148;48.972;12.794;2022-08-19T06:41:45;20.30;99.90
27759;DHT22;15148;48.972;12.794;2022-08-19T06:46:54;20.30;99.90
27759;DHT22;15148;48.972;12.794;2022-08-19T06:51:57;20.30;99.90
27759;DHT22;15148;48.972;12.794;2022-08-19T06:57:02;20.40;99.90
27759;DHT22;15148;48.972;12.794;2022-08-19T07:02:05;20.50;99.90
27759;DHT22;15148;48.972;12.794;2022-08-19T07:07:11;20.50;99.90
27759;DHT22;15148;48.972;12.794;2022-08-19T07:12:21;20.50;99.90
27759;DHT22;15148;48.972;12.794;2022-08-19T07:17:23;20.60;99.90
27759;DHT22;15148;48.972;12.794;2022-08-19T07:22:25;20.60;99.90
27759;DHT22;15148;48.972;12.794;2022-08-19T07:27:27;20.70;99.90
27759;DHT22;15148;48.972;12.794;2022-08-19T07:32:34;20.70;99.90
27759;DHT22;15148;48.972;12.794;2022-08-19T07:37:36;20.70;99.90
27759;DHT22;15148;48.972;12.794;2022-08-19T07:42:38;20.80;99.90
27759;DHT22;15148;48.972;12.794;2022-08-19T07:47:40;20.80;99.90
27759;DHT22;15148;48.972;12.794;2022-08-19T07:52:51;20.90;99.90
27759;DHT22;15148;48.972;12.794;2022-08-19T07:57:53;20.90;99.90
27759;DHT22;15148;48.972;12.794;2022-08-19T08:02:55;20.90;99.90
27759;DHT22;15148;48.972;12.794;2022-08-19T08:07:57;20.90;99.90
27759;DHT22;15148;48.972;12.794;2022-08-19T08:13:28;20.90;99.90
27759;DHT22;15148;48.972;12.794;2022-08-19T08:18:30;20.90;99.90
27759;DHT22;15148;48.972;12.794;2022-08-19T08:23:32;20.80;99.90
27759;DHT22;15148;48.972;12.794;2022-08-19T08:28:34;20.80;99.90
27759;DHT22;15148;48.972;12.794;2022-08-19T08:33:36;20.80;99.90
27759;DHT22;15148;48.972;12.794;2022-08-19T08:38:40;20.90;99.90
27759;DHT22;15148;48.972;12.794;2022-08-19T08:43:45;21.00;99.90
27759;DHT22;15148;48.972;12.794;2022-08-19T08:48:56;21.10;99.90
27759;DHT22;15148;48.972;12.794;2022-08-19T08:54:02;21.30;99.90
27759;DHT22;15148;48.972;12.794;2022-08-19T08:59:16;21.50;99.90
27759;DHT22;15148;48.972;12.794;2022-08-19T09:04:21;21.80;99.90
27759;DHT22;15148;48.972;12.794;2022-08-19T09:09:34;21.80;99.90
27759;DHT22;15148;48.972;12.794;2022-08-19T09:19:56;22.20;99.90
27759;DHT22;15148;48.972;12.794;2022-08-19T09:24:58;22.60;99.90
27759;DHT22;15148;48.972;12.794;2022-08-19T09:30:00;22.80;99.90
27759;DHT22;15148;48.972;12.794;2022-08-19T09:35:02;22.90;99.90
27759;DHT22;15148;48.972;12.794;2022-08-19T09:40:10;22.90;99.90
27759;DHT22;15148;48.972;12.794;2022-08-19T09:45:19;22.90;99.90
27759;DHT22;15148;48.972;12.794;2022-08-19T09:50:23;22.90;99.90
27759;DHT22;15148;48.972;12.794;2022-08-19T09:55:25;22.90;99.90
27759;DHT22;15148;48.972;12.794;2022-08-19T10:00:32;22.90;99.90
27759;DHT22;15148;48.972;12.794;2022-08-19T10:05:34;22.90;99.90
27759;DHT22;15148;48.972;12.794;2022-08-19T10:10:57;22.70;99.90
27759;DHT22;15148;48.972;12.794;2022-08-19T10:16:09;22.70;99.90
27759;DHT22;15148;48.972;12.794;2022-08-19T10:21:17;22.60;99.90
27759;DHT22;15148;48.972;12.794;2022-08-19T10:26:26;22.60;99.90
27759;DHT22;15148;48.972;12.794;2022-08-19T10:31:30;22.50;99.90
27759;DHT22;15148;48.972;12.794;2022-08-19T10:36:52;22.60;99.90
27759;DHT22;15148;48.972;12.794;2022-08-19T10:42:06;22.90;99.90
27759;DHT22;15148;48.972;12.794;2022-08-19T10:47:08;23.20;99.90
27759;DHT22;15148;48.972;12.794;2022-08-19T10:52:26;23.30;99.90
27759;DHT22;15148;48.972;12.794;2022-08-19T10:57:39;23.20;99.90
27759;DHT22;15148;48.972;12.794;2022-08-19T11:03:02;23.30;99.90
27759;DHT22;15148;48.972;12.794;2022-08-19T11:08:04;23.50;99.90
27759;DHT22;15148;48.972;12.794;2022-08-19T11:13:24;23.50;99.90
27759;DHT22;15148;48.972;12.794;2022-08-19T11:18:26;23.70;99.90
27759;DHT22;15148;48.972;12.794;2022-08-19T11:23:28;24.20;99.90
27759;DHT22;15148;48.972;12.794;2022-08-19T11:28:30;24.70;99.90
27759;DHT22;15148;48.972;12.794;2022-08-19T11:33:32;24.90;99.90
27759;DHT22;15148;48.972;12.794;2022-08-19T11:38:35;25.20;99.90
27759;DHT22;15148;48.972;12.794;2022-08-19T11:43:37;25.30;99.90
27759;DHT22;15148;48.972;12.794;2022-08-19T11:48:39;25.40;99.90
27759;DHT22;15148;48.972;12.794;2022-08-19T11:53:41;25.40;99.90
27759;DHT22;15148;48.972;12.794;2022-08-19T11:58:43;25.40;99.90
27759;DHT22;15148;48.972;12.794;2022-08-19T12:03:47;25.30;99.90
27759;DHT22;15148;48.972;12.794;2022-08-19T12:08:50;25.30;99.90
27759;DHT22;15148;48.972;12.794;2022-08-19T12:13:52;25.10;99.90
27759;DHT22;15148;48.972;12.794;2022-08-19T12:18:55;25.00;99.90
27759;DHT22;15148;48.972;12.794;2022-08-19T12:23:59;24.90;99.90
27759;DHT22;15148;48.972;12.794;2022-08-19T12:29:02;24.70;99.90
27759;DHT22;15148;48.972;12.794;2022-08-19T12:34:04;24.40;99.90
27759;DHT22;15148;48.972;12.794;2022-08-19T12:39:05;24.30;99.90
27759;DHT22;15148;48.972;12.794;2022-08-19T12:44:11;24.10;99.90
27759;DHT22;15148;48.972;12.794;2022-08-19T12:49:15;24.00;99.90
27759;DHT22;15148;48.972;12.794;2022-08-19T12:54:37;23.80;99.90
27759;DHT22;15148;48.972;12.794;2022-08-19T12:59:39;23.80;99.90
27759;DHT22;15148;48.972;12.794;2022-08-19T13:04:41;23.70;99.90
27759;DHT22;15148;48.972;12.794;2022-08-19T13:09:43;23.70;99.90
27759;DHT22;15148;48.972;12.794;2022-08-19T13:14:46;23.60;99.90
27759;DHT22;15148;48.972;12.794;2022-08-19T13:19:52;23.60;99.90
27759;DHT22;15148;48.972;12.794;2022-08-19T13:24:54;23.60;99.90
27759;DHT22;15148;48.972;12.794;2022-08-19T13:29:56;23.60;99.90
27759;DHT22;15148;48.972;12.794;2022-08-19T13:35:17;23.60;99.90
27759;DHT22;15148;48.972;12.794;2022-08-19T13:40:22;23.60;99.90
27759;DHT22;15148;48.972;12.794;2022-08-19T13:45:28;23.60;99.90
27759;DHT22;15148;48.972;12.794;2022-08-19T13:50:31;23.60;99.90
27759;DHT22;15148;48.972;12.794;2022-08-19T13:55:33;23.70;99.90
27759;DHT22;15148;48.972;12.794;2022-08-19T14:00:38;23.90;99.90
27759;DHT22;15148;48.972;12.794;2022-08-19T14:05:41;24.10;99.90
27759;DHT22;15148;48.972;12.794;2022-08-19T14:10:43;24.20;99.90
27759;DHT22;15148;48.972;12.794;2022-08-19T14:15:49;24.30;99.90
27759;DHT22;15148;48.972;12.794;2022-08-19T14:20:52;24.30;99.90
27759;DHT22;15148;48.972;12.794;2022-08-19T14:26:03;24.50;99.90
27759;DHT22;15148;48.972;12.794;2022-08-19T14:31:05;24.70;99.90
27759;DHT22;15148;48.972;12.794;2022-08-19T14:36:08;24.90;99.90
27759;DHT22;15148;48.972;12.794;2022-08-19T14:41:16;24.90;99.90
27759;DHT22;15148;48.972;12.794;2022-08-19T14:46:26;25.00;99.90
27759;DHT22;15148;48.972;12.794;2022-08-19T14:51:30;25.10;99.90
27759;DHT22;15148;48.972;12.794;2022-08-19T14:56:32;25.10;99.90
27759;DHT22;15148;48.972;12.794;2022-08-19T15:01:35;25.20;99.90
27759;DHT22;15148;48.972;12.794;2022-08-19T15:06:37;25.10;99.90
27759;DHT22;15148;48.972;12.794;2022-08-19T15:11:39;25.00;99.90
27759;DHT22;15148;48.972;12.794;2022-08-19T15:16:41;24.90;99.90
27759;DHT22;15148;48.972;12.794;2022-08-19T15:21:43;24.80;99.90
27759;DHT22;15148;48.972;12.794;2022-08-19T15:26:45;24.80;99.90
27759;DHT22;15148;48.972;12.794;2022-08-19T15:31:48;25.00;99.90
27759;DHT22;15148;48.972;12.794;2022-08-19T15:36:53;24.90;99.90
27759;DHT22;15148;48.972;12.794;2022-08-19T15:41:55;24.90;99.90
27759;DHT22;15148;48.972;12.794;2022-08-19T15:46:57;24.80;99.90
27759;DHT22;15148;48.972;12.794;2022-08-19T15:51:59;24.60;99.90
27759;DHT22;15148;48.972;12.794;2022-08-19T15:57:02;24.50;99.90
27759;DHT22;15148;48.972;12.794;2022-08-19T16:02:24;24.40;99.90
27759;DHT22;15148;48.972;12.794;2022-08-19T16:07:47;24.20;99.90
27759;DHT22;15148;48.972;12.794;2022-08-19T16:12:49;24.20;99.90
27759;DHT22;15148;48.972;12.794;2022-08-19T16:17:50;24.10;99.90
27759;DHT22;15148;48.972;12.794;2022-08-19T16:22:58;24.10;99.90
27759;DHT22;15148;48.972;12.794;2022-08-19T16:28:00;24.10;99.90
27759;DHT22;15148;48.972;12.794;2022-08-19T16:33:10;24.20;99.90
27759;DHT22;15148;48.972;12.794;2022-08-19T16:38:12;24.10;99.90
27759;DHT22;15148;48.972;12.794;2022-08-19T16:43:13;24.00;99.90
27759;DHT22;15148;48.972;12.794;2022-08-19T16:48:15;23.90;99.90
27759;DHT22;15148;48.972;12.794;2022-08-19T16:53:20;23.70;99.90
27759;DHT22;15148;48.972;12.794;2022-08-19T16:58:25;23.70;99.90
27759;DHT22;15148;48.972;12.794;2022-08-19T17:03:29;23.60;99.90
27759;DHT22;15148;48.972;12.794;2022-08-19T17:08:37;23.60;99.90
27759;DHT22;15148;48.972;12.794;2022-08-19T17:13:39;23.60;99.90
27759;DHT22;15148;48.972;12.794;2022-08-19T17:18:44;23.60;99.90
27759;DHT22;15148;48.972;12.794;2022-08-19T17:23:46;23.60;99.90
27759;DHT22;15148;48.972;12.794;2022-08-19T17:28:50;23.60;99.90
27759;DHT22;15148;48.972;12.794;2022-08-19T17:33:53;23.60;99.90
27759;DHT22;15148;48.972;12.794;2022-08-19T17:38:58;23.50;99.90
27759;DHT22;15148;48.972;12.794;2022-08-19T17:44:02;23.50;99.90
27759;DHT22;15148;48.972;12.794;2022-08-19T17:49:04;23.40;99.90
27759;DHT22;15148;48.972;12.794;2022-08-19T17:54:09;23.30;99.90
27759;DHT22;15148;48.972;12.794;2022-08-19T17:59:12;23.30;99.90
27759;DHT22;15148;48.972;12.794;2022-08-19T18:04:15;23.20;99.90
27759;DHT22;15148;48.972;12.794;2022-08-19T18:09:18;23.10;99.90
27759;DHT22;15148;48.972;12.794;2022-08-19T18:14:26;22.90;99.90
27759;DHT22;15148;48.972;12.794;2022-08-19T18:19:36;22.80;99.90
27759;DHT22;15148;48.972;12.794;2022-08-19T18:24:43;22.80;99.90
27759;DHT22;15148;48.972;12.794;2022-08-19T18:29:46;22.70;99.90
27759;DHT22;15148;48.972;12.794;2022-08-19T18:34:48;22.50;99.90
27759;DHT22;15148;48.972;12.794;2022-08-19T18:39:50;22.20;99.90
27759;DHT22;15148;48.972;12.794;2022-08-19T18:45:11;22.20;99.90
27759;DHT22;15148;48.972;12.794;2022-08-19T18:50:31;22.20;99.90
27759;DHT22;15148;48.972;12.794;2022-08-19T18:55:33;22.20;99.90
27759;DHT22;15148;48.972;12.794;2022-08-19T19:00:35;22.10;99.90
27759;DHT22;15148;48.972;12.794;2022-08-19T19:05:38;22.00;99.90
27759;DHT22;15148;48.972;12.794;2022-08-19T19:10:42;22.00;99.90
27759;DHT22;15148;48.972;12.794;2022-08-19T19:15:46;21.90;99.90
27759;DHT22;15148;48.972;12.794;2022-08-19T19:20:47;21.90;99.90
27759;DHT22;15148;48.972;12.794;2022-08-19T19:25:50;21.80;99.90
27759;DHT22;15148;48.972;12.794;2022-08-19T19:30:54;21.80;99.90
27759;DHT22;15148;48.972;12.794;2022-08-19T19:35:59;21.80;99.90
27759;DHT22;15148;48.972;12.794;2022-08-19T19:41:01;21.70;99.90
27759;DHT22;15148;48.972;12.794;2022-08-19T19:46:03;21.60;99.90
27759;DHT22;15148;48.972;12.794;2022-08-19T19:51:09;21.60;99.90
27759;DHT22;15148;48.972;12.794;2022-08-19T19:56:11;21.50;99.90
27759;DHT22;15148;48.972;12.794;2022-08-19T20:01:13;21.40;99.90
27759;DHT22;15148;48.972;12.794;2022-08-19T20:06:23;21.40;99.90
27759;DHT22;15148;48.972;12.794;2022-08-19T20:11:30;21.40;99.90
27759;DHT22;15148;48.972;12.794;2022-08-19T20:16:33;21.30;99.90
27759;DHT22;15148;48.972;12.794;2022-08-19T20:21:35;21.20;99.90
27759;DHT22;15148;48.972;12.794;2022-08-19T20:26:42;21.10;99.90
27759;DHT22;15148;48.972;12.794;2022-08-19T20:31:47;21.10;99.90
27759;DHT22;15148;48.972;12.794;2022-08-19T20:36:58;21.00;99.90
27759;DHT22;15148;48.972;12.794;2022-08-19T20:42:00;20.90;99.90
27759;DHT22;15148;48.972;12.794;2022-08-19T20:47:02;20.80;99.90
27759;DHT22;15148;48.972;12.794;2022-08-19T20:52:05;20.50;99.90
27759;DHT22;15148;48.972;12.794;2022-08-19T20:57:07;20.50;99.90
27759;DHT22;15148;48.972;12.794;2022-08-19T21:02:09;20.60;99.90
27759;DHT22;15148;48.972;12.794;2022-08-19T21:07:11;20.60;99.90
27759;DHT22;15148;48.972;12.794;2022-08-19T21:12:13;20.60;99.90
27759;DHT22;15148;48.972;12.794;2022-08-19T21:17:15;20.70;99.90
27759;DHT22;15148;48.972;12.794;2022-08-19T21:22:17;20.70;99.90
27759;DHT22;15148;48.972;12.794;2022-08-19T21:27:19;20.60;99.90
27759;DHT22;15148;48.972;12.794;2022-08-19T21:32:21;20.60;99.90
27759;DHT22;15148;48.972;12.794;2022-08-19T21:37:24;20.70;99.90
27759;DHT22;15148;48.972;12.794;2022-08-19T21:42:26;20.70;99.90
27759;DHT22;15148;48.972;12.794;2022-08-19T21:47:28;20.60;99.90
27759;DHT22;15148;48.972;12.794;2022-08-19T21:52:30;20.40;99.90
27759;DHT22;15148;48.972;12.794;2022-08-19T21:57:33;20.50;99.90
27759;DHT22;15148;48.972;12.794;2022-08-19T22:02:36;20.50;99.90
27759;DHT22;15148;48.972;12.794;2022-08-19T22:07:38;20.40;99.90
27759;DHT22;15148;48.972;12.794;2022-08-19T22:12:40;20.40;99.90
27759;DHT22;15148;48.972;12.794;2022-08-19T22:17:52;20.40;99.90
27759;DHT22;15148;48.972;12.794;2022-08-19T22:22:58;20.40;99.90
27759;DHT22;15148;48.972;12.794;2022-08-19T22:28:03;20.50;99.90
27759;DHT22;15148;48.972;12.794;2022-08-19T22:33:08;20.50;99.90
27759;DHT22;15148;48.972;12.794;2022-08-19T22:38:12;20.40;99.90
27759;DHT22;15148;48.972;12.794;2022-08-19T22:43:17;20.30;99.90
27759;DHT22;15148;48.972;12.794;2022-08-19T22:48:22;20.30;99.90
27759;DHT22;15148;48.972;12.794;2022-08-19T22:53:25;20.30;99.90
27759;DHT22;15148;48.972;12.794;2022-08-19T22:58:27;20.30;99.90
27759;DHT22;15148;48.972;12.794;2022-08-19T23:03:30;20.20;99.90
27759;DHT22;15148;48.972;12.794;2022-08-19T23:08:33;20.30;99.90
27759;DHT22;15148;48.972;12.794;2022-08-19T23:13:39;20.30;99.90
27759;DHT22;15148;48.972;12.794;2022-08-19T23:18:41;20.30;99.90
27759;DHT22;15148;48.972;12.794;2022-08-19T23:23:43;20.30;99.90
27759;DHT22;15148;48.972;12.794;2022-08-19T23:28:45;20.30;99.90
27759;DHT22;15148;48.972;12.794;2022-08-19T23:34:05;20.20;99.90
27759;DHT22;15148;48.972;12.794;2022-08-19T23:39:07;20.20;99.90
27759;DHT22;15148;48.972;12.794;2022-08-19T23:44:09;20.10;99.90
27759;DHT22;15148;48.972;12.794;2022-08-19T23:49:16;20.10;99.90
27759;DHT22;15148;48.972;12.794;2022-08-19T23:54:17;20.00;99.90
27759;DHT22;15148;48.972;12.794;2022-08-19T23:59:19;19.90;99.90
